NCAR-RAP Real-Time Weather Data

Output produced by METARs form (01 August 2014  05:45 UTC)
found at http://weather.rap.ucar.edu/surface/
 
Conditions at: KALB observed 01 August 2014  04:51 UTC
Temperature: 17.2°C (63°F)
Dewpoint: 16.7°C (62°F) [RH = 97%]
Pressure (altimeter): 30.14 inches Hg (1020.7 mb)
[Sea-level pressure: 1020.4 mb]
Winds: calm
Visibility: 10 or more miles (16+ km)
Ceiling: at least 12,000 feet AGL
Clouds: few clouds at 300 feet AGL
Present Weather: BCFG  (patches of fog)
SOME DATA ABOVE MAY BE INACCURATE!!!
"$" is an indication the sensor requires maintenance
KALB 010451Z 00000KT 10SM BCFG FEW003 17/17 A3014 RMK AO2 SLP204 BCFG NW-N MIFG S-W T01720167 402560167 $

Conditions at: KALB observed 01 August 2014  04:44 UTC
Temperature: 17.2°C (63°F)
Dewpoint: 16.7°C (62°F) [RH = 97%]
Pressure (altimeter): 30.14 inches Hg (1020.7 mb)
Winds: calm
Visibility: 10 or more miles (16+ km)
Ceiling: at least 12,000 feet AGL
Clouds: few clouds at 300 feet AGL
Present Weather: BCFG  (patches of fog)
SOME DATA ABOVE MAY BE INACCURATE!!!
"$" is an indication the sensor requires maintenance
KALB 010444Z 00000KT 10SM BCFG FEW003 17/17 A3014 RMK AO2 BCFG NW-N MIFG S-W T01720167 $

Conditions at: KALB observed 01 August 2014  03:51 UTC
Temperature: 17.8°C (64°F)
Dewpoint: 16.7°C (62°F) [RH = 93%]
Pressure (altimeter): 30.14 inches Hg (1020.7 mb)
[Sea-level pressure: 1020.5 mb]
Winds: calm
Visibility: 10 or more miles (16+ km)
Ceiling: at least 12,000 feet AGL
Clouds: sky clear below 12,000 feet AGL
Present Weather: BCFG  (patches of fog)
SOME DATA ABOVE MAY BE INACCURATE!!!
"$" is an indication the sensor requires maintenance
KALB 010351Z 00000KT 10SM BCFG CLR 18/17 A3014 RMK AO2 SLP205 BCFG N MIFG S-W T01780167 $

Conditions at: KALB observed 01 August 2014  02:51 UTC
Temperature: 18.3°C (65°F)
Dewpoint: 16.7°C (62°F) [RH = 90%]
Pressure (altimeter): 30.13 inches Hg (1020.4 mb)
[Sea-level pressure: 1020.2 mb]
Winds: calm
Visibility: 8 miles (13 km)
Ceiling: at least 12,000 feet AGL
Clouds: sky clear below 12,000 feet AGL
Present Weather:
SOME DATA ABOVE MAY BE INACCURATE!!!
"$" is an indication the sensor requires maintenance
KALB 010251Z 00000KT 8SM CLR 18/17 A3013 RMK AO2 SLP202 T01830167 51016 $

Conditions at: KALB observed 01 August 2014  01:51 UTC
Temperature: 20.0°C (68°F)
Dewpoint: 17.8°C (64°F) [RH = 87%]
Pressure (altimeter): 30.12 inches Hg (1020.1 mb)
[Sea-level pressure: 1020.0 mb]
Winds: calm
Visibility: 10 or more miles (16+ km)
Ceiling: at least 12,000 feet AGL
Clouds: few clouds at 10000 feet AGL
Present Weather:
SOME DATA ABOVE MAY BE INACCURATE!!!
"$" is an indication the sensor requires maintenance
KALB 010151Z 00000KT 10SM FEW100 20/18 A3012 RMK AO2 SLP200 T02000178 $

Conditions at: KALB observed 01 August 2014  00:51 UTC
Temperature: 20.6°C (69°F)
Dewpoint: 17.8°C (64°F) [RH = 84%]
Pressure (altimeter): 30.10 inches Hg (1019.4 mb)
[Sea-level pressure: 1019.2 mb]
Winds: calm
Visibility: 10 or more miles (16+ km)
Ceiling: at least 12,000 feet AGL
Clouds: scattered clouds at 6000 feet AGL
scattered clouds at 10000 feet AGL
Present Weather:
SOME DATA ABOVE MAY BE INACCURATE!!!
"$" is an indication the sensor requires maintenance
KALB 010051Z 00000KT 10SM SCT060 SCT100 21/18 A3010 RMK AO2 SLP192 T02060178 $

Conditions at: KALB observed 31 July 2014  23:51 UTC
Temperature: 21.7°C (71°F)
Dewpoint: 18.3°C (65°F) [RH = 81%]
Pressure (altimeter): 30.08 inches Hg (1018.7 mb)
[Sea-level pressure: 1018.7 mb]
Winds: calm
Visibility: 10 or more miles (16+ km)
Ceiling: at least 12,000 feet AGL
Clouds: few clouds at 6000 feet AGL
few clouds at 10000 feet AGL
scattered clouds at 27000 feet AGL
Present Weather:
SOME DATA ABOVE MAY BE INACCURATE!!!
"$" is an indication the sensor requires maintenance
KALB 312351Z 00000KT 10SM FEW060 FEW100 SCT270 22/18 A3008 RMK AO2 SLP187 60002 T02170183 10256 20217 53010 $

Conditions at: KALB observed 31 July 2014  22:51 UTC
Temperature: 23.9°C (75°F)
Dewpoint: 17.8°C (64°F) [RH = 69%]
Pressure (altimeter): 30.06 inches Hg (1018.0 mb)
[Sea-level pressure: 1017.9 mb]
Winds: from the SE (140 degrees) at 7 MPH (6 knots; 3.1 m/s)
Visibility: 10 or more miles (16+ km)
Ceiling: at least 12,000 feet AGL
Clouds: few clouds at 4000 feet AGL
scattered clouds at 8000 feet AGL
Present Weather:
SOME DATA ABOVE MAY BE INACCURATE!!!
"$" is an indication the sensor requires maintenance
KALB 312251Z 14006KT 10SM FEW040 SCT080 24/18 A3006 RMK AO2 SLP179 T02390178 $

Conditions at: KALB observed 31 July 2014  21:51 UTC
Temperature: 22.8°C (73°F)
Dewpoint: 18.9°C (66°F) [RH = 79%]
Pressure (altimeter): 30.06 inches Hg (1018.0 mb)
[Sea-level pressure: 1017.6 mb]
Winds: from the ESE (110 degrees) at 6 MPH (5 knots; 2.6 m/s)
Visibility: 10 or more miles (16+ km)
Ceiling: 9000 feet AGL
Clouds: few clouds at 4000 feet AGL
scattered clouds at 7000 feet AGL
broken clouds at 9000 feet AGL
Present Weather:
SOME DATA ABOVE MAY BE INACCURATE!!!
"$" is an indication the sensor requires maintenance
KALB 312151Z 11005KT 10SM FEW040CB SCT070 BKN090 23/19 A3006 RMK AO2 RAB13E26 SLP176 BKN V SCT CB SE AND DSNT E MOV NE VCSH SE P0001 T02280189 $

Conditions at: KALB observed 31 July 2014  20:51 UTC
Temperature: 23.9°C (75°F)
Dewpoint: 18.3°C (65°F) [RH = 71%]
Pressure (altimeter): 30.05 inches Hg (1017.7 mb)
[Sea-level pressure: 1017.6 mb]
Winds: from the E (100 degrees) at 9 MPH (8 knots; 4.2 m/s)
Visibility: 10 or more miles (16+ km)
Ceiling: 9500 feet AGL
Clouds: few clouds at 2500 feet AGL
scattered clouds at 4000 feet AGL
broken clouds at 9500 feet AGL
Present Weather:
SOME DATA ABOVE MAY BE INACCURATE!!!
"$" is an indication the sensor requires maintenance
KALB 312051Z 10008KT 10SM FEW025 SCT040CB BKN095 24/18 A3005 RMK AO2 SLP176 CB E MOV NE VCSH E 60001 T02390183 53006 $

Conditions at: KALB observed 31 July 2014  19:51 UTC
Temperature: 24.4°C (76°F)
Dewpoint: 17.8°C (64°F) [RH = 67%]
Pressure (altimeter): 30.04 inches Hg (1017.4 mb)
[Sea-level pressure: 1017.2 mb]
Winds: from the NNE (20 degrees) at 7 MPH (6 knots; 3.1 m/s)
Visibility: 10 or more miles (16+ km)
Ceiling: 25000 feet AGL
Clouds: few clouds at 2500 feet AGL
scattered clouds at 4000 feet AGL
scattered clouds at 7500 feet AGL
broken clouds at 25000 feet AGL
Present Weather:
SOME DATA ABOVE MAY BE INACCURATE!!!
"$" is an indication the sensor requires maintenance
KALB 311951Z 02006KT 10SM FEW025 SCT040CB SCT075 BKN250 24/18 A3004 RMK AO2 RAB19E28 SLP172 CB E-SE AND DSNT NE MOV E VCSH SE P0001 T02440178 $

Conditions at: KALB observed 31 July 2014  18:51 UTC
Temperature: 23.3°C (74°F)
Dewpoint: 17.2°C (63°F) [RH = 69%]
Pressure (altimeter): 30.04 inches Hg (1017.4 mb)
[Sea-level pressure: 1017.2 mb]
Winds: from the NW (320 degrees) at 14 MPH (12 knots; 6.2 m/s)
Visibility: 10 or more miles (16+ km)
Ceiling: 10000 feet AGL
Clouds: scattered clouds at 4000 feet AGL
scattered clouds at 5500 feet AGL
broken clouds at 10000 feet AGL
broken clouds at 25000 feet AGL
Present Weather:
SOME DATA ABOVE MAY BE INACCURATE!!!
"$" is an indication the sensor requires maintenance
KALB 311851Z 32012KT 10SM SCT040CB SCT055 BKN100 BKN250 23/17 A3004 RMK AO2 SLP172 CB N-NE MOV E VCSH NW-NE T02330172 $

Conditions at: KALB observed 31 July 2014  17:51 UTC
Temperature: 25.0°C (77°F)
Dewpoint: 15.6°C (60°F) [RH = 56%]
Pressure (altimeter): 30.04 inches Hg (1017.4 mb)
[Sea-level pressure: 1016.9 mb]
Winds: from the SSW (200 degrees) at 15 MPH (13 knots; 6.8 m/s)
Visibility: 10 or more miles (16+ km)
Ceiling: 25000 feet AGL
Clouds: few clouds at 3500 feet AGL
scattered clouds at 8000 feet AGL
scattered clouds at 13000 feet AGL
broken clouds at 25000 feet AGL
Present Weather:
SOME DATA ABOVE MAY BE INACCURATE!!!
"$" is an indication the sensor requires maintenance
KALB 311751Z 20013KT 10SM FEW035CB SCT080 SCT130 BKN250 25/16 A3004 RMK AO2 LTG DSNT N AND NE SLP169 CB N AND DSNT N-NE MOV E VCSH NW-N T02500156 10250 20172 56009 $